Terminal Aerodrome Forecast
Issued by NWS

Home | Current Version | Previous Version | Text Only | Print | Product List | Glossary On
Versions: 1 2 3 4 5 6 7 8 9 10 11 12 13
174
FTUS44 KLZK 142320
TAFLIT
TAF
KLIT 142320Z 1500/1524 13005KT 6SM -SHRA BR OVC025
     FM150200 VRB03KT P6SM VCSH OVC015
      TEMPO 1502/1506 5SM -SHRA BR OVC005
     FM150600 VRB03KT 4SM -SHRA BR VCTS OVC005CB
     FM151500 03005KT P6SM VCSH SCT015 BKN100
     FM151800 01005KT P6SM SCT050 BKN100
     FM152100 30006KT P6SM SCT100=

USA.gov is the U.S. government's official web portal to all federal, state and local government web resources and services.